Bila Tserkva, Ukraine
Current Conditions -  °F | °C
As of 12:00 AM on Friday 24 Oct 2014 (Local Time) from UKKK Reporting Station
Clear Clear  
Wind Chill: 21°   Ceiling: Unl
Heat Index: 32°   Visibility: 6mi
Dew Point: 18°   Wind: 18mph
Humidity: 55%   Direction: 60°ENE
Pressure: 30.27"   Gusts: 29mph
Location:  49.78°N, 30.12°E
Report Text: UKKK 232100Z 06008G13MPS CAVOK M00/M08 Q1025 08CLRD70 NOSIG
Loading
Personal Weather Stations






























Interactive Weather Map
Tropical Storm Tracking
New forecast layout! Learn more

10-Day Weather Forecast

Advertisements
Track Severe Weather on mobile